Time;durP1;ratioP1;P1;durP2;ratioP2;P2;SDS_P1;SDS_P2;PMS_P1;PMS_P2;Temp;Humidity;BMP_temperature;BMP_pressure;BME280_temperature;BME280_humidity;BME280_pressure;Samples;Min_cycle;Max_cycle;Signal;HPM_P1;HPM_P2
2022/04/21 00:00:16;;;;;;;;;;;11.30;99.90;;;;;;6282821;22;19911;-81
2022/04/21 00:02:42;;;;;;;;;;;11.30;99.90;;;;;;6284641;22;19904;-82
2022/04/21 00:05:08;;;;;;;;;;;11.30;99.90;;;;;;6284345;22;19908;-82
2022/04/21 00:07:34;;;;;;;;;;;11.30;99.90;;;;;;6283959;22;19915;-82
2022/04/21 00:09:59;;;;;;;;;;;11.30;99.90;;;;;;6285429;22;19925;-82
2022/04/21 00:12:28;;;;;;;;;;;11.30;99.90;;;;;;6283576;22;19923;-82
2022/04/21 00:14:54;;;;;;;;;;;11.20;99.90;;;;;;6284495;22;19968;-82
2022/04/21 00:17:19;;;;;;;;;;;11.20;99.90;;;;;;6285013;22;19911;-82
2022/04/21 00:19:45;;;;;;;;;;;11.10;99.90;;;;;;6283963;22;20215;-82
2022/04/21 00:24:54;;;;;;;;;;;11.10;99.90;;;;;;6284512;22;19910;-82
2022/04/21 00:27:20;;;;;;;;;;;11.10;99.90;;;;;;6282480;22;19903;-82
2022/04/21 00:29:45;;;;;;;;;;;11.00;99.90;;;;;;6282717;22;19903;-82
2022/04/21 00:32:11;;;;;;;;;;;11.00;99.90;;;;;;6283792;22;19907;-82
2022/04/21 00:34:37;;;;;;;;;;;10.90;99.90;;;;;;6284025;22;19927;-82
2022/04/21 00:37:03;;;;;;;;;;;10.90;99.90;;;;;;6283548;22;20302;-82
2022/04/21 00:39:30;;;;;;;;;;;10.90;99.90;;;;;;6282856;22;19903;-82
2022/04/21 00:41:56;;;;;;;;;;;10.90;99.90;;;;;;6282970;22;20322;-82
2022/04/21 00:44:21;;;;;;;;;;;10.90;99.90;;;;;;6280408;22;19946;-82
2022/04/21 00:46:47;;;;;;;;;;;10.80;99.90;;;;;;6281514;22;19911;-81
2022/04/21 00:49:13;;;;;;;;;;;10.70;99.90;;;;;;6283136;22;19910;-80
2022/04/21 00:51:38;;;;;;;;;;;10.70;99.90;;;;;;6282143;22;19904;-82
2022/04/21 00:54:04;;;;;;;;;;;10.60;99.90;;;;;;6283481;22;20322;-81
2022/04/21 00:56:29;;;;;;;;;;;10.50;99.90;;;;;;6282537;22;19907;-82
2022/04/21 00:58:55;;;;;;;;;;;10.40;99.90;;;;;;6282066;22;19903;-82
2022/04/21 01:04:05;;;;;;;;;;;10.40;99.90;;;;;;6283113;22;20297;-82
2022/04/21 01:06:33;;;;;;;;;;;10.30;99.90;;;;;;6280407;22;19912;-82
2022/04/21 01:08:59;;;;;;;;;;;10.30;99.90;;;;;;6283843;22;19918;-82
2022/04/21 01:11:24;;;;;;;;;;;10.30;99.90;;;;;;6282628;22;20326;-82
2022/04/21 01:13:50;;;;;;;;;;;10.30;99.90;;;;;;6283828;22;19953;-82
2022/04/21 01:16:15;;;;;;;;;;;10.30;99.90;;;;;;6281997;22;19922;-81
2022/04/21 01:18:41;;;;;;;;;;;10.20;99.90;;;;;;6281265;22;20284;-82
2022/04/21 01:21:06;;;;;;;;;;;10.30;99.90;;;;;;6282674;22;19903;-82
2022/04/21 01:23:32;;;;;;;;;;;10.30;99.90;;;;;;6282415;22;19961;-82
2022/04/21 01:25:58;;;;;;;;;;;10.30;99.90;;;;;;6282377;22;19907;-81
2022/04/21 01:28:25;;;;;;;;;;;10.30;99.90;;;;;;6282797;22;19903;-81
2022/04/21 01:30:57;;;;;;;;;;;10.30;99.90;;;;;;6281852;22;19907;-82
2022/04/21 01:33:24;;;;;;;;;;;10.30;99.90;;;;;;6281647;22;20245;-82
2022/04/21 01:35:52;;;;;;;;;;;10.20;99.90;;;;;;6281783;22;20041;-82
2022/04/21 01:41:11;;;;;;;;;;;10.20;99.90;;;;;;6283833;22;19926;-82
2022/04/21 01:43:38;;;;;;;;;;;10.20;99.90;;;;;;6282661;22;19926;-82
2022/04/21 01:46:04;;;;;;;;;;;10.20;99.90;;;;;;6283705;22;19903;-82
2022/04/21 01:48:30;;;;;;;;;;;10.20;99.90;;;;;;6282071;22;20794;-80
2022/04/21 01:50:55;;;;;;;;;;;10.20;99.90;;;;;;6280383;22;19904;-82
2022/04/21 01:53:21;;;;;;;;;;;10.10;99.90;;;;;;6282651;22;20393;-82
2022/04/21 01:55:46;;;;;;;;;;;10.00;99.90;;;;;;6284582;22;20025;-82
2022/04/21 01:58:15;;;;;;;;;;;10.00;99.90;;;;;;6282225;22;19907;-81
2022/04/21 02:00:40;;;;;;;;;;;10.00;99.90;;;;;;6281786;22;20344;-82
2022/04/21 02:03:06;;;;;;;;;;;10.00;99.90;;;;;;6279465;22;19903;-82
2022/04/21 02:05:32;;;;;;;;;;;10.00;99.90;;;;;;6282762;22;19959;-83
2022/04/21 02:07:57;;;;;;;;;;;10.00;99.90;;;;;;6282199;22;19977;-82
2022/04/21 02:10:23;;;;;;;;;;;10.00;99.90;;;;;;6282539;22;19931;-82
2022/04/21 02:12:49;;;;;;;;;;;10.10;99.90;;;;;;6283399;22;19908;-81
2022/04/21 02:15:18;;;;;;;;;;;10.10;99.90;;;;;;6281121;22;19903;-82
2022/04/21 02:17:46;;;;;;;;;;;10.00;99.90;;;;;;6282649;22;19910;-81
2022/04/21 02:20:15;;;;;;;;;;;9.90;99.90;;;;;;6281430;22;20002;-82
2022/04/21 02:22:40;;;;;;;;;;;9.90;99.90;;;;;;6282449;22;20288;-82
2022/04/21 02:25:12;;;;;;;;;;;9.90;99.90;;;;;;6283435;22;19903;-82
2022/04/21 02:27:38;;;;;;;;;;;9.80;99.90;;;;;;6284439;22;19907;-83
2022/04/21 02:30:07;;;;;;;;;;;9.80;99.90;;;;;;6283475;22;20333;-82
2022/04/21 02:32:33;;;;;;;;;;;9.80;99.90;;;;;;6281898;22;19961;-82
2022/04/21 02:34:58;;;;;;;;;;;9.80;99.90;;;;;;6280816;22;19903;-82
2022/04/21 02:37:26;;;;;;;;;;;9.80;99.90;;;;;;6281981;22;19929;-82
2022/04/21 02:39:52;;;;;;;;;;;9.80;99.90;;;;;;6286998;22;19915;-82
2022/04/21 02:42:21;;;;;;;;;;;9.80;99.90;;;;;;6282323;22;19903;-82
2022/04/21 02:44:47;;;;;;;;;;;9.70;99.90;;;;;;6282719;22;19914;-82
2022/04/21 02:47:14;;;;;;;;;;;9.70;99.90;;;;;;6281537;22;19907;-81
2022/04/21 02:49:41;;;;;;;;;;;9.70;99.90;;;;;;6283175;22;19926;-81
2022/04/21 02:52:10;;;;;;;;;;;9.70;99.90;;;;;;6283456;22;19903;-82
2022/04/21 02:57:22;;;;;;;;;;;9.60;99.90;;;;;;6295678;22;19914;-82
2022/04/21 02:59:49;;;;;;;;;;;9.60;99.90;;;;;;6290331;22;19957;-82
2022/04/21 03:02:14;;;;;;;;;;;9.60;99.90;;;;;;6282743;22;19907;-81
2022/04/21 03:04:43;;;;;;;;;;;9.50;99.90;;;;;;6280403;22;19947;-82
2022/04/21 03:07:08;;;;;;;;;;;9.50;99.90;;;;;;6280256;22;19907;-82
2022/04/21 03:09:34;;;;;;;;;;;9.50;99.90;;;;;;6279945;22;19919;-82
2022/04/21 03:12:02;;;;;;;;;;;9.50;99.90;;;;;;6281852;22;20237;-82
2022/04/21 03:14:27;;;;;;;;;;;9.50;99.90;;;;;;6281266;22;19954;-82
2022/04/21 03:16:55;;;;;;;;;;;9.50;99.90;;;;;;6283129;22;20016;-82
2022/04/21 03:19:21;;;;;;;;;;;9.50;99.90;;;;;;6283570;22;19911;-82
2022/04/21 03:24:31;;;;;;;;;;;9.50;99.90;;;;;;6283368;22;19914;-82
2022/04/21 03:26:57;;;;;;;;;;;9.50;99.90;;;;;;6283773;22;19910;-82
2022/04/21 03:29:22;;;;;;;;;;;9.50;99.90;;;;;;6283061;22;19903;-82
2022/04/21 03:31:51;;;;;;;;;;;9.40;99.90;;;;;;6282579;22;19957;-82
2022/04/21 03:34:17;;;;;;;;;;;9.40;99.90;;;;;;6283864;22;19903;-81
2022/04/21 03:36:49;;;;;;;;;;;9.40;99.90;;;;;;6283526;22;19946;-82
2022/04/21 03:39:16;;;;;;;;;;;9.40;99.90;;;;;;6283869;22;19907;-81
2022/04/21 03:41:42;;;;;;;;;;;9.40;99.90;;;;;;6284454;22;19910;-81
2022/04/21 03:44:07;;;;;;;;;;;9.30;99.90;;;;;;6284047;22;20214;-82
2022/04/21 03:46:33;;;;;;;;;;;9.30;99.90;;;;;;6283107;22;19907;-82
2022/04/21 03:48:59;;;;;;;;;;;9.30;99.90;;;;;;6283252;22;19903;-81
2022/04/21 03:51:25;;;;;;;;;;;9.20;99.90;;;;;;6283857;22;19910;-82
2022/04/21 03:53:51;;;;;;;;;;;9.20;99.90;;;;;;6281875;22;20352;-81
2022/04/21 03:56:17;;;;;;;;;;;9.20;99.90;;;;;;6282948;22;19955;-81
2022/04/21 03:58:42;;;;;;;;;;;9.20;99.90;;;;;;6283461;22;19910;-80
2022/04/21 04:01:10;;;;;;;;;;;9.20;99.90;;;;;;6284755;22;19904;-82
2022/04/21 04:03:35;;;;;;;;;;;9.10;99.90;;;;;;6282781;22;19907;-81
2022/04/21 04:06:01;;;;;;;;;;;9.00;99.90;;;;;;6283328;22;19915;-80
2022/04/21 04:11:10;;;;;;;;;;;9.00;99.90;;;;;;6283857;22;19914;-82
2022/04/21 04:13:36;;;;;;;;;;;9.00;99.90;;;;;;6282833;22;19907;-81
2022/04/21 04:16:01;;;;;;;;;;;9.00;99.90;;;;;;6283405;22;20344;-81
2022/04/21 04:18:28;;;;;;;;;;;9.00;99.90;;;;;;6282338;22;19911;-82
2022/04/21 04:20:54;;;;;;;;;;;8.90;99.90;;;;;;6284108;22;19911;-81
2022/04/21 04:23:20;;;;;;;;;;;8.90;99.90;;;;;;6281796;22;19907;-82
2022/04/21 04:25:46;;;;;;;;;;;8.90;99.90;;;;;;6281471;22;19982;-82
2022/04/21 04:28:12;;;;;;;;;;;8.90;99.90;;;;;;6282845;22;19903;-82
2022/04/21 04:30:38;;;;;;;;;;;8.90;99.90;;;;;;6283190;22;20356;-82
2022/04/21 04:33:04;;;;;;;;;;;8.90;99.90;;;;;;6283660;22;19937;-82
2022/04/21 04:35:31;;;;;;;;;;;8.90;99.90;;;;;;6280564;22;19903;-81
2022/04/21 04:37:59;;;;;;;;;;;8.90;99.90;;;;;;6282693;22;19930;-81
2022/04/21 04:40:27;;;;;;;;;;;8.90;99.90;;;;;;6281761;22;19904;-82
2022/04/21 04:42:53;;;;;;;;;;;8.90;99.90;;;;;;6282701;22;19904;-82
2022/04/21 04:48:03;;;;;;;;;;;9.00;99.90;;;;;;6285480;22;20103;-82
2022/04/21 04:50:28;;;;;;;;;;;9.00;99.90;;;;;;6283298;22;19974;-82
2022/04/21 04:53:03;;;;;;;;;;;9.10;99.90;;;;;;6282549;22;19903;-82
2022/04/21 04:55:30;;;;;;;;;;;9.10;99.90;;;;;;6282350;22;19903;-82
2022/04/21 04:57:55;;;;;;;;;;;9.20;99.90;;;;;;6280427;22;19903;-82
2022/04/21 05:00:21;;;;;;;;;;;9.30;99.90;;;;;;6282706;22;19910;-82
2022/04/21 05:02:47;;;;;;;;;;;9.30;99.90;;;;;;6288093;22;19907;-82
2022/04/21 05:05:15;;;;;;;;;;;9.40;99.90;;;;;;6287501;22;19904;-82
2022/04/21 05:07:41;;;;;;;;;;;9.50;99.90;;;;;;6283352;22;19921;-82
2022/04/21 05:10:07;;;;;;;;;;;9.60;99.90;;;;;;6281633;22;19904;-82
2022/04/21 05:12:32;;;;;;;;;;;9.60;99.90;;;;;;6282518;22;19903;-82
2022/04/21 05:14:58;;;;;;;;;;;9.70;99.90;;;;;;6284279;22;19938;-82
2022/04/21 05:17:24;;;;;;;;;;;9.70;99.90;;;;;;6282726;22;19907;-82
2022/04/21 05:19:52;;;;;;;;;;;9.80;99.90;;;;;;6283187;22;19954;-83
2022/04/21 05:22:20;;;;;;;;;;;10.10;99.90;;;;;;6282658;22;19911;-81
2022/04/21 05:24:50;;;;;;;;;;;11.90;99.90;;;;;;6283030;22;19911;-83
2022/04/21 05:27:18;;;;;;;;;;;14.30;99.90;;;;;;6283339;22;19903;-81
2022/04/21 05:32:35;;;;;;;;;;;18.60;99.90;;;;;;6283678;22;19953;-83
2022/04/21 05:35:04;;;;;;;;;;;20.50;99.90;;;;;;6283436;22;19919;-83
2022/04/21 05:37:30;;;;;;;;;;;21.90;99.90;;;;;;6287113;22;19978;-85
2022/04/21 05:39:58;;;;;;;;;;;23.20;99.90;;;;;;6289001;22;19926;-85
2022/04/21 05:42:25;;;;;;;;;;;24.20;99.90;;;;;;6289397;22;19903;-83
2022/04/21 05:44:52;;;;;;;;;;;25.40;99.90;;;;;;6294475;22;19904;-83
2022/04/21 05:47:24;;;;;;;;;;;26.50;99.90;;;;;;6286745;22;20256;-82
2022/04/21 05:49:50;;;;;;;;;;;27.60;99.90;;;;;;6287014;22;19911;-83
2022/04/21 05:52:16;;;;;;;;;;;28.80;99.90;;;;;;6283661;22;19904;-82
2022/04/21 05:54:44;;;;;;;;;;;30.10;99.90;;;;;;6286788;22;19982;-82
2022/04/21 05:57:12;;;;;;;;;;;31.40;99.90;;;;;;6286597;22;19907;-83
2022/04/21 05:59:38;;;;;;;;;;;32.60;99.90;;;;;;6289177;22;19903;-82
2022/04/21 06:02:11;;;;;;;;;;;33.70;99.90;;;;;;6284826;22;19926;-83
2022/04/21 06:04:42;;;;;;;;;;;34.70;99.90;;;;;;6281725;22;20025;-83
2022/04/21 06:07:07;;;;;;;;;;;35.60;99.90;;;;;;6280899;22;19908;-82
2022/04/21 06:09:42;;;;;;;;;;;36.10;99.90;;;;;;6280767;22;20242;-83
2022/04/21 06:12:09;;;;;;;;;;;36.80;99.90;;;;;;6278584;22;19978;-83
2022/04/21 06:14:45;;;;;;;;;;;;;;;;;;;;;
2022/04/21 06:18:12;;;;;;;;;;;38.20;99.90;;;;;;6277417;22;19935;-83
2022/04/21 06:23:54;;;;;;;;;;;38.50;99.90;;;;;;6273825;22;19918;-84
2022/04/21 06:26:30;;;;;;;;;;;;;;;;;;;;;
2022/04/21 06:29:09;;;;;;;;;;;;;;;;;;;;;
2022/04/21 06:41:01;;;;;;;;;;;40.80;99.90;;;;;;6265944;22;19977;-84
2022/04/21 06:49:35;;;;;;;;;;;42.60;99.90;;;;;;6275670;22;19910;-84
2022/04/21 06:52:20;;;;;;;;;;;43.20;99.90;;;;;;6272876;22;19989;-84
2022/04/21 06:54:50;;;;;;;;;;;43.60;99.90;;;;;;6275609;22;19977;-85
2022/04/21 06:57:18;;;;;;;;;;;43.70;99.90;;;;;;6276382;22;19914;-84
2022/04/21 06:59:44;;;;;;;;;;;43.30;99.90;;;;;;6276671;22;19910;-85
2022/04/21 07:02:10;;;;;;;;;;;43.50;99.90;;;;;;6275312;22;20273;-84
2022/04/21 07:04:42;;;;;;;;;;;43.50;99.90;;;;;;6276283;22;19910;-85
2022/04/21 07:07:08;;;;;;;;;;;42.90;99.90;;;;;;6275776;22;20233;-84
2022/04/21 07:09:36;;;;;;;;;;;42.90;99.90;;;;;;6273367;22;19965;-84
2022/04/21 07:12:02;;;;;;;;;;;43.00;99.90;;;;;;6276650;22;19903;-84
2022/04/21 07:14:28;;;;;;;;;;;42.10;99.90;;;;;;6275433;22;19915;-85
2022/04/21 07:16:55;;;;;;;;;;;41.50;99.90;;;;;;6276192;22;19911;-85
2022/04/21 07:19:23;;;;;;;;;;;41.30;99.90;;;;;;6274013;22;19903;-84
2022/04/21 07:21:49;;;;;;;;;;;41.00;99.90;;;;;;6275962;22;20516;-85
2022/04/21 07:24:14;;;;;;;;;;;40.30;99.90;;;;;;6276983;22;19903;-85
2022/04/21 07:26:39;;;;;;;;;;;39.70;99.90;;;;;;6278528;22;19907;-85
2022/04/21 07:29:05;;;;;;;;;;;39.70;99.90;;;;;;6279440;22;20304;-85
2022/04/21 07:31:32;;;;;;;;;;;39.90;99.90;;;;;;6276304;22;19907;-85
2022/04/21 07:33:57;;;;;;;;;;;40.50;99.90;;;;;;6275544;22;19903;-85
2022/04/21 07:36:23;;;;;;;;;;;40.00;99.90;;;;;;6276260;22;19937;-85
2022/04/21 07:38:49;;;;;;;;;;;40.90;99.90;;;;;;6274792;22;19907;-85
2022/04/21 07:41:14;;;;;;;;;;;41.30;99.90;;;;;;6276201;22;20233;-85
2022/04/21 07:43:42;;;;;;;;;;;41.80;99.90;;;;;;6275870;22;19907;-85
2022/04/21 07:46:09;;;;;;;;;;;42.80;99.90;;;;;;6275236;22;19907;-85
2022/04/21 07:51:23;;;;;;;;;;;43.30;99.90;;;;;;6277828;22;19909;-85
2022/04/21 07:53:49;;;;;;;;;;;42.80;99.90;;;;;;6276614;22;19903;-85
2022/04/21 07:56:22;;;;;;;;;;;42.30;99.90;;;;;;6276178;22;19960;-86
2022/04/21 07:58:47;;;;;;;;;;;43.00;99.90;;;;;;6274749;22;19911;-85
2022/04/21 08:01:13;;;;;;;;;;;44.10;99.90;;;;;;6276680;22;19907;-87
2022/04/21 08:03:39;;;;;;;;;;;44.70;99.90;;;;;;6278176;22;19904;-86
2022/04/21 08:06:05;;;;;;;;;;;45.20;99.90;;;;;;6278231;22;19903;-85
2022/04/21 08:08:30;;;;;;;;;;;44.80;99.90;;;;;;6276231;22;19915;-85
2022/04/21 08:10:56;;;;;;;;;;;44.70;99.90;;;;;;6277509;22;19907;-85
2022/04/21 08:13:23;;;;;;;;;;;45.20;99.90;;;;;;6277307;22;19929;-85
2022/04/21 08:15:49;;;;;;;;;;;45.90;99.90;;;;;;6276727;22;20384;-86
2022/04/21 08:18:14;;;;;;;;;;;45.40;99.90;;;;;;6276035;22;19904;-85
2022/04/21 08:20:40;;;;;;;;;;;44.00;99.90;;;;;;6279639;22;19953;-85
2022/04/21 08:23:06;;;;;;;;;;;44.40;99.90;;;;;;6281557;22;19914;-84
2022/04/21 08:33:43;;;;;;;;;;;44.40;99.90;;;;;;6281681;22;19910;-85
2022/04/21 08:36:31;;;;;;;;;;;45.40;99.90;;;;;;6281454;22;19915;-86
2022/04/21 08:38:59;;;;;;;;;;;44.40;99.90;;;;;;6282278;22;19987;-84
2022/04/21 08:41:31;;;;;;;;;;;43.70;99.90;;;;;;6283129;22;19969;-85
2022/04/21 08:43:58;;;;;;;;;;;44.10;99.90;;;;;;6282858;22;19903;-85
2022/04/21 08:46:24;;;;;;;;;;;44.50;99.90;;;;;;6279587;22;19914;-85
2022/04/21 08:48:51;;;;;;;;;;;45.10;99.90;;;;;;6279124;22;19977;-85
2022/04/21 08:51:20;;;;;;;;;;;45.00;99.90;;;;;;6278609;22;19903;-85
2022/04/21 08:53:48;;;;;;;;;;;45.40;99.90;;;;;;6278103;22;19903;-84
2022/04/21 08:56:15;;;;;;;;;;;44.60;99.90;;;;;;6284274;22;20344;-84
2022/04/21 08:58:42;;;;;;;;;;;43.40;99.90;;;;;;6283297;22;19908;-84
2022/04/21 09:01:08;;;;;;;;;;;44.00;99.90;;;;;;6286582;22;20410;-84
2022/04/21 09:03:38;;;;;;;;;;;44.30;99.90;;;;;;6283057;22;19903;-85
2022/04/21 09:06:04;;;;;;;;;;;44.30;99.90;;;;;;6286177;22;19980;-85
2022/04/21 09:08:31;;;;;;;;;;;43.70;99.90;;;;;;6284174;22;19962;-84
2022/04/21 09:11:04;;;;;;;;;;;42.00;99.90;;;;;;6287623;22;19903;-84
2022/04/21 09:13:31;;;;;;;;;;;41.90;99.90;;;;;;6290022;22;19913;-84
2022/04/21 09:16:00;;;;;;;;;;;41.30;99.90;;;;;;6287631;22;19907;-85
2022/04/21 09:18:34;;;;;;;;;;;40.80;99.90;;;;;;6286450;22;19904;-84
2022/04/21 09:21:04;;;;;;;;;;;40.90;99.90;;;;;;6285654;22;19907;-84
2022/04/21 09:23:33;;;;;;;;;;;40.60;99.90;;;;;;6284978;22;19930;-84
2022/04/21 09:26:05;;;;;;;;;;;41.20;99.90;;;;;;6285775;22;19910;-84
2022/04/21 09:28:30;;;;;;;;;;;42.30;99.90;;;;;;6284008;22;19904;-84
2022/04/21 09:30:57;;;;;;;;;;;42.80;99.90;;;;;;6283293;22;19913;-84
2022/04/21 09:33:32;;;;;;;;;;;43.50;99.90;;;;;;6283361;22;19907;-84
2022/04/21 09:36:01;;;;;;;;;;;44.40;99.90;;;;;;6281983;22;19915;-84
2022/04/21 09:38:29;;;;;;;;;;;44.40;99.90;;;;;;6279931;22;19938;-84
2022/04/21 09:40:55;;;;;;;;;;;43.60;99.90;;;;;;6282234;22;19951;-84
2022/04/21 09:43:30;;;;;;;;;;;41.90;99.90;;;;;;6281824;22;20519;-84
2022/04/21 09:46:27;;;;;;;;;;;42.60;99.90;;;;;;6282757;22;19909;-84
2022/04/21 09:48:53;;;;;;;;;;;41.20;99.90;;;;;;6275425;22;20352;-84
2022/04/21 09:51:22;;;;;;;;;;;41.90;99.90;;;;;;6286849;22;19908;-84
2022/04/21 09:53:49;;;;;;;;;;;39.30;99.90;;;;;;6287263;22;19992;-84
2022/04/21 09:56:24;;;;;;;;;;;39.00;99.90;;;;;;6286567;22;19918;-85
2022/04/21 10:02:05;;;;;;;;;;;;;;;;;;;;;
2022/04/21 10:04:59;;;;;;;;;;;38.80;99.90;;;;;;6286994;22;19928;-84
2022/04/21 10:07:30;;;;;;;;;;;39.90;99.90;;;;;;6285231;22;19903;-84
2022/04/21 10:10:29;;;;;;;;;;;;;;;;;;;;;
2022/04/21 10:13:12;;;;;;;;;;;40.30;99.90;;;;;;6283881;22;19930;-85
2022/04/21 10:18:52;;;;;;;;;;;38.60;99.90;;;;;;6283180;22;19987;-84
2022/04/21 10:21:19;;;;;;;;;;;38.90;99.90;;;;;;6284003;22;19974;-84
2022/04/21 10:24:15;;;;;;;;;;;;;;;;;;;;;
2022/04/21 10:26:43;;;;;;;;;;;36.80;99.90;;;;;;6283736;22;19943;-83
2022/04/21 10:32:45;;;;;;;;;;;;;;;;;;;;;
2022/04/21 10:35:43;;;;;;;;;;;37.80;99.90;;;;;;6284957;22;19930;-84
2022/04/21 10:38:28;;;;;;;;;;;;;;;;;;;;;
2022/04/21 10:47:11;;;;;;;;;;;38.10;99.90;;;;;;6275429;22;20026;-85
2022/04/21 10:49:52;;;;;;;;;;;38.10;99.90;;;;;;6277236;22;19903;-84
2022/04/21 10:57:47;;;;;;;;;;;37.60;99.90;;;;;;6286598;22;19989;-84
2022/04/21 11:00:26;;;;;;;;;;;38.20;99.90;;;;;;6287540;22;19925;-83
2022/04/21 11:03:20;;;;;;;;;;;37.70;99.90;;;;;;6286599;22;19910;-82
2022/04/21 11:05:46;;;;;;;;;;;38.70;99.90;;;;;;6282400;22;19903;-84
2022/04/21 11:08:13;;;;;;;;;;;39.40;99.90;;;;;;6287930;22;19949;-84
2022/04/21 11:10:43;;;;;;;;;;;36.50;99.90;;;;;;6287185;22;19929;-84
2022/04/21 11:13:09;;;;;;;;;;;35.80;99.60;;;;;;6287680;22;19931;-83
2022/04/21 11:15:46;;;;;;;;;;;36.20;99.90;;;;;;6288763;22;19903;-83
2022/04/21 11:18:13;;;;;;;;;;;36.40;99.90;;;;;;6287557;22;19903;-85
2022/04/21 11:20:39;;;;;;;;;;;36.20;99.90;;;;;;6288307;22;19925;-84
2022/04/21 11:23:09;;;;;;;;;;;36.10;99.90;;;;;;6289582;22;19903;-83
2022/04/21 11:25:35;;;;;;;;;;;35.30;99.60;;;;;;6288985;22;19953;-84
2022/04/21 11:28:01;;;;;;;;;;;34.00;98.00;;;;;;6286289;22;19903;-83
2022/04/21 11:30:38;;;;;;;;;;;;;;;;;;;;;
2022/04/21 11:33:08;;;;;;;;;;;33.30;96.80;;;;;;6290203;22;20302;-84
2022/04/21 11:35:34;;;;;;;;;;;33.40;97.90;;;;;;6286302;22;19903;-85
2022/04/21 11:37:59;;;;;;;;;;;32.50;96.30;;;;;;6287841;22;19910;-84
2022/04/21 11:40:25;;;;;;;;;;;32.20;96.30;;;;;;6289470;22;19946;-84
2022/04/21 11:42:51;;;;;;;;;;;30.50;92.90;;;;;;6288407;22;19903;-85
2022/04/21 11:45:20;;;;;;;;;;;29.90;91.90;;;;;;6288881;22;19947;-84
2022/04/21 11:47:45;;;;;;;;;;;29.00;90.30;;;;;;6288008;22;19907;-85
2022/04/21 11:50:13;;;;;;;;;;;28.00;88.50;;;;;;6292380;22;19931;-84
2022/04/21 11:52:42;;;;;;;;;;;27.40;86.70;;;;;;6291650;22;20073;-84
2022/04/21 11:55:08;;;;;;;;;;;27.00;87.70;;;;;;6293908;22;20146;-84
2022/04/21 11:57:40;;;;;;;;;;;25.90;82.90;;;;;;6291177;22;19923;-84
2022/04/21 12:00:06;;;;;;;;;;;25.60;83.60;;;;;;6293338;22;19947;-84
2022/04/21 12:08:00;;;;;;;;;;;24.50;83.30;;;;;;6283882;22;19909;-83
2022/04/21 12:10:28;;;;;;;;;;;23.80;83.00;;;;;;6284530;22;20101;-82
2022/04/21 12:12:54;;;;;;;;;;;23.40;81.00;;;;;;6282485;22;19974;-83
2022/04/21 12:15:29;;;;;;;;;;;23.20;82.30;;;;;;6285676;22;19908;-83
2022/04/21 12:18:01;;;;;;;;;;;23.20;83.80;;;;;;6283717;22;19965;-84
2022/04/21 12:20:27;;;;;;;;;;;23.40;87.70;;;;;;6285564;22;19903;-84
2022/04/21 12:22:53;;;;;;;;;;;23.70;90.20;;;;;;6280939;22;20344;-84
2022/04/21 12:25:19;;;;;;;;;;;23.90;99.00;;;;;;6281046;22;19903;-84
2022/04/21 12:27:45;;;;;;;;;;;24.30;92.60;;;;;;6279174;22;20250;-86
2022/04/21 12:30:14;;;;;;;;;;;24.50;93.30;;;;;;6280450;22;19911;-84
2022/04/21 12:32:40;;;;;;;;;;;24.70;94.50;;;;;;6284719;22;19923;-84
2022/04/21 12:35:07;;;;;;;;;;;25.00;95.60;;;;;;6281400;22;19915;-84
2022/04/21 12:37:33;;;;;;;;;;;25.20;96.30;;;;;;6280653;22;19911;-84
2022/04/21 12:40:00;;;;;;;;;;;26.00;98.80;;;;;;6280052;22;20326;-85
2022/04/21 12:42:25;;;;;;;;;;;26.60;99.90;;;;;;6278157;22;19992;-84
2022/04/21 12:44:54;;;;;;;;;;;26.50;99.90;;;;;;6279959;22;19907;-84
2022/04/21 12:47:21;;;;;;;;;;;26.10;99.30;;;;;;6280130;22;19913;-84
2022/04/21 12:50:00;;;;;;;;;;;25.60;98.70;;;;;;6280730;22;19903;-84
2022/04/21 12:52:44;;;;;;;;;;;25.30;98.10;;;;;;6280790;22;19964;-84
2022/04/21 12:55:10;;;;;;;;;;;25.60;99.40;;;;;;6278032;22;19907;-84
2022/04/21 12:57:39;;;;;;;;;;;25.40;99.40;;;;;;6278341;22;19919;-84
2022/04/21 13:00:09;;;;;;;;;;;25.00;99.30;;;;;;6280095;22;19995;-84
2022/04/21 13:02:34;;;;;;;;;;;24.30;98.20;;;;;;6281057;22;19903;-84
2022/04/21 13:05:00;;;;;;;;;;;23.90;97.70;;;;;;6281315;22;19910;-84
2022/04/21 13:07:26;;;;;;;;;;;24.10;99.00;;;;;;6278596;22;20321;-84
2022/04/21 13:09:52;;;;;;;;;;;24.80;99.90;;;;;;6276964;22;20487;-84
2022/04/21 13:12:17;;;;;;;;;;;25.10;99.90;;;;;;6279054;22;20241;-84
2022/04/21 13:14:43;;;;;;;;;;;25.40;99.90;;;;;;6274750;22;20258;-84
2022/04/21 13:17:08;;;;;;;;;;;25.90;99.90;;;;;;6274293;22;19949;-84
2022/04/21 13:19:34;;;;;;;;;;;26.50;99.90;;;;;;6274947;22;19910;-85
2022/04/21 13:22:02;;;;;;;;;;;26.60;99.90;;;;;;6275468;22;19965;-85
2022/04/21 13:24:28;;;;;;;;;;;27.20;99.90;;;;;;6276381;22;19918;-84
2022/04/21 13:26:54;;;;;;;;;;;27.10;99.90;;;;;;6279965;22;19938;-83
2022/04/21 13:29:20;;;;;;;;;;;27.20;99.90;;;;;;6283657;22;19908;-84
2022/04/21 13:34:47;;;;;;;;;;;27.30;99.90;;;;;;6216496;23;20418;-85
2022/04/21 13:37:12;;;;;;;;;;;27.20;99.90;;;;;;6264864;22;19907;-84
2022/04/21 13:39:40;;;;;;;;;;;27.30;99.90;;;;;;6276032;22;19914;-84
2022/04/21 13:42:06;;;;;;;;;;;27.00;99.90;;;;;;6277606;22;19931;-84
2022/04/21 13:44:31;;;;;;;;;;;26.40;99.90;;;;;;6283797;22;19914;-85
2022/04/21 13:46:57;;;;;;;;;;;25.80;99.90;;;;;;6281249;22;19907;-85
2022/04/21 13:49:23;;;;;;;;;;;25.70;99.90;;;;;;6280557;22;20345;-84
2022/04/21 13:51:49;;;;;;;;;;;25.70;99.90;;;;;;6279564;22;19903;-84
2022/04/21 13:54:15;;;;;;;;;;;25.00;99.90;;;;;;6285310;22;19978;-84
2022/04/21 13:56:41;;;;;;;;;;;24.70;99.90;;;;;;6283216;22;19910;-85
2022/04/21 13:59:09;;;;;;;;;;;24.40;99.90;;;;;;6283937;22;19917;-85
2022/04/21 14:01:34;;;;;;;;;;;24.60;99.90;;;;;;6284756;22;19903;-85
2022/04/21 14:04:00;;;;;;;;;;;24.90;99.90;;;;;;6285260;22;19943;-85
2022/04/21 14:06:25;;;;;;;;;;;25.00;99.90;;;;;;6283524;22;19907;-84
2022/04/21 14:08:51;;;;;;;;;;;25.30;99.90;;;;;;6282737;22;19935;-84
2022/04/21 14:11:17;;;;;;;;;;;25.70;99.90;;;;;;6276189;22;19960;-85
2022/04/21 14:13:45;;;;;;;;;;;25.50;99.90;;;;;;6277846;22;19915;-85
2022/04/21 14:16:15;;;;;;;;;;;25.30;99.90;;;;;;6277378;22;19918;-85
2022/04/21 14:18:42;;;;;;;;;;;25.30;99.90;;;;;;6279246;22;19908;-84
2022/04/21 14:21:09;;;;;;;;;;;24.90;99.90;;;;;;6280763;22;19981;-85
2022/04/21 14:23:52;;;;;;;;;;;24.50;99.90;;;;;;6284127;22;19913;-84
2022/04/21 14:26:17;;;;;;;;;;;24.40;99.90;;;;;;6283443;22;19964;-84
2022/04/21 14:28:43;;;;;;;;;;;24.40;99.90;;;;;;6282418;22;19907;-84
2022/04/21 14:31:09;;;;;;;;;;;24.30;99.90;;;;;;6287031;22;20244;-84
2022/04/21 14:33:35;;;;;;;;;;;24.20;99.90;;;;;;6285731;22;19907;-84
2022/04/21 14:36:04;;;;;;;;;;;23.50;99.90;;;;;;6280181;22;19915;-82
2022/04/21 14:44:04;;;;;;;;;;;22.50;99.90;;;;;;6277522;22;19913;-85
2022/04/21 14:46:30;;;;;;;;;;;22.30;99.90;;;;;;6275926;22;19938;-85
2022/04/21 14:48:56;;;;;;;;;;;22.00;99.90;;;;;;6275629;22;19910;-84
2022/04/21 14:51:21;;;;;;;;;;;21.90;99.90;;;;;;6277525;22;19996;-85
2022/04/21 14:53:47;;;;;;;;;;;21.90;99.90;;;;;;6278774;22;20374;-85
2022/04/21 14:56:13;;;;;;;;;;;21.90;99.90;;;;;;6278916;22;20295;-84
2022/04/21 14:58:39;;;;;;;;;;;21.90;99.90;;;;;;6284414;22;19907;-84
2022/04/21 15:01:04;;;;;;;;;;;21.90;99.90;;;;;;6280461;22;20238;-83
2022/04/21 15:03:30;;;;;;;;;;;22.00;99.90;;;;;;6276704;22;19903;-85
2022/04/21 15:05:55;;;;;;;;;;;21.90;99.90;;;;;;6275212;22;20463;-85
2022/04/21 15:08:21;;;;;;;;;;;21.90;99.90;;;;;;6275083;22;19915;-85
2022/04/21 15:10:46;;;;;;;;;;;21.90;99.90;;;;;;6278721;22;20345;-85
2022/04/21 15:13:12;;;;;;;;;;;21.80;99.90;;;;;;6283655;22;19914;-84
2022/04/21 15:15:37;;;;;;;;;;;21.90;99.90;;;;;;6286255;22;20224;-85
2022/04/21 15:18:04;;;;;;;;;;;21.80;99.90;;;;;;6287971;22;19904;-84
2022/04/21 15:20:32;;;;;;;;;;;22.10;99.90;;;;;;6288128;22;20322;-84
2022/04/21 15:22:58;;;;;;;;;;;22.30;99.90;;;;;;6288530;22;19904;-84
2022/04/21 15:25:24;;;;;;;;;;;22.20;99.90;;;;;;6289045;22;19903;-84
2022/04/21 15:27:51;;;;;;;;;;;22.30;99.90;;;;;;6287629;22;19911;-83
2022/04/21 15:30:17;;;;;;;;;;;22.40;99.90;;;;;;6288114;22;19907;-84
2022/04/21 15:32:43;;;;;;;;;;;22.20;99.90;;;;;;6289272;22;20340;-84
2022/04/21 15:35:09;;;;;;;;;;;22.10;99.90;;;;;;6289755;22;19913;-85
2022/04/21 15:37:34;;;;;;;;;;;22.10;99.90;;;;;;6288736;22;19903;-85
2022/04/21 15:40:04;;;;;;;;;;;22.10;99.90;;;;;;6289113;22;19947;-85
2022/04/21 15:42:34;;;;;;;;;;;22.10;99.90;;;;;;6291538;22;19911;-84
2022/04/21 15:44:59;;;;;;;;;;;22.10;99.90;;;;;;6289684;22;19957;-84
2022/04/21 15:47:25;;;;;;;;;;;21.90;99.90;;;;;;6289704;22;20351;-85
2022/04/21 15:49:50;;;;;;;;;;;22.00;99.90;;;;;;6289747;22;19903;-85
2022/04/21 15:52:16;;;;;;;;;;;21.80;99.90;;;;;;6286798;22;19907;-84
2022/04/21 16:00:10;;;;;;;;;;;21.90;99.90;;;;;;6287400;22;19911;-83
2022/04/21 16:02:35;;;;;;;;;;;21.80;99.90;;;;;;6287470;22;19903;-85
2022/04/21 16:05:01;;;;;;;;;;;22.00;99.90;;;;;;6289073;22;19911;-84